Time;durP1;ratioP1;P1;durP2;ratioP2;P2;SDS_P1;SDS_P2;PMS_P1;PMS_P2;Temp;Humidity;BMP_temperature;BMP_pressure;BME280_temperature;BME280_humidity;BME280_pressure;Samples;Min_cycle;Max_cycle;Signal;HPM_P1;HPM_P2
2021/11/01 00:01:44;;;;;;;20.58;14.82;;;;;;;10.77;100.00;99516.84;4837505;29;20039;-77
2021/11/01 00:04:10;;;;;;;19.75;14.80;;;;;;;10.79;100.00;99499.44;4854693;29;20094;-77
2021/11/01 00:06:35;;;;;;;17.63;15.00;;;;;;;10.89;100.00;99503.41;4826867;29;20038;-79
2021/11/01 00:09:02;;;;;;;16.70;14.68;;;;;;;10.93;100.00;99504.59;4829114;29;20030;-78
2021/11/01 00:11:27;;;;;;;23.23;15.57;;;;;;;10.96;100.00;99501.41;4823341;29;20369;-78
2021/11/01 00:13:53;;;;;;;18.15;15.02;;;;;;;10.95;100.00;99480.94;4831412;29;20038;-78
2021/11/01 00:16:19;;;;;;;19.10;15.63;;;;;;;10.81;100.00;99456.94;4838333;29;20042;-78
2021/11/01 00:18:44;;;;;;;24.30;16.35;;;;;;;11.01;100.00;99461.97;4856539;29;20467;-78
2021/11/01 00:21:11;;;;;;;20.15;16.48;;;;;;;10.96;100.00;99447.59;4833008;29;20422;-78
2021/11/01 00:23:36;;;;;;;20.30;15.90;;;;;;;10.99;100.00;99447.97;4822654;29;20118;-78
2021/11/01 00:26:02;;;;;;;20.63;16.45;;;;;;;11.01;100.00;99431.56;4838878;29;20473;-78
2021/11/01 00:28:34;;;;;;;21.80;16.60;;;;;;;11.06;100.00;99420.91;4822613;29;20035;-78
2021/11/01 00:31:00;;;;;;;23.83;17.35;;;;;;;11.12;100.00;99417.25;4838996;29;20526;-78
2021/11/01 00:33:26;;;;;;;24.40;17.23;;;;;;;11.03;100.00;99403.34;4822986;29;20062;-77
2021/11/01 00:35:52;;;;;;;22.50;17.10;;;;;;;11.04;100.00;99388.03;4808332;29;20031;-78
2021/11/01 00:38:18;;;;;;;19.25;16.15;;;;;;;11.24;100.00;99395.72;4853948;29;20056;-78
2021/11/01 00:40:44;;;;;;;20.80;16.83;;;;;;;11.24;100.00;99383.06;4841039;29;20062;-79
2021/11/01 00:43:09;;;;;;;18.77;16.67;;;;;;;11.27;100.00;99374.50;4827923;29;20066;-78
2021/11/01 00:45:35;;;;;;;20.85;17.23;;;;;;;11.29;100.00;99372.41;4827852;29;20113;-78
2021/11/01 00:48:02;;;;;;;18.98;16.33;;;;;;;11.32;100.00;99356.81;4826525;29;20468;-78
2021/11/01 00:50:28;;;;;;;21.65;16.30;;;;;;;11.32;100.00;99354.13;4845504;29;20034;-79
2021/11/01 00:52:55;;;;;;;22.40;17.52;;;;;;;11.33;100.00;99363.84;4831837;29;20045;-78
2021/11/01 00:55:31;;;;;;;20.83;17.52;;;;;;;11.20;100.00;99341.53;4826466;29;20094;-77
2021/11/01 00:57:58;;;;;;;23.23;17.58;;;;;;;11.34;100.00;99352.00;4828585;29;20022;-78
2021/11/01 01:00:24;;;;;;;21.80;17.30;;;;;;;11.37;100.00;99356.91;4831349;29;20040;-78
2021/11/01 01:02:50;;;;;;;21.27;16.95;;;;;;;11.37;100.00;99348.84;4832926;29;20125;-79
2021/11/01 01:05:16;;;;;;;18.90;15.63;;;;;;;11.29;100.00;99350.88;4812319;29;20345;-77
2021/11/01 01:07:41;;;;;;;20.65;16.83;;;;;;;11.38;100.00;99364.75;4830549;29;20512;-78
2021/11/01 01:10:07;;;;;;;20.60;15.70;;;;;;;11.20;100.00;99346.91;4847164;29;20037;-78
2021/11/01 01:12:33;;;;;;;18.67;16.33;;;;;;;11.37;100.00;99363.13;4828309;29;20038;-79
2021/11/01 01:15:04;;;;;;;21.42;16.45;;;;;;;11.39;100.00;99339.47;4845546;29;20038;-78
2021/11/01 01:17:31;;;;;;;21.35;16.77;;;;;;;11.38;100.00;99348.59;4826425;29;20730;-79
2021/11/01 01:20:05;;;;;;;21.30;17.48;;;;;;;11.38;100.00;99347.78;4841594;29;20049;-78
2021/11/01 01:22:32;;;;;;;;;;;;;;;11.33;100.00;99332.34;4832595;29;20117;-78
2021/11/01 01:25:29;;;;;;;21.35;15.85;;;;;;;11.28;100.00;99322.28;4840423;29;20295;-79
2021/11/01 01:28:01;;;;;;;21.05;16.27;;;;;;;10.95;100.00;99284.47;4837987;29;20034;-79
2021/11/01 01:30:29;;;;;;;20.13;15.93;;;;;;;11.26;100.00;99332.50;4840514;29;20046;-79
2021/11/01 01:32:54;;;;;;;20.90;16.65;;;;;;;11.34;100.00;99360.09;4811455;29;20054;-79
2021/11/01 01:35:20;;;;;;;21.33;16.33;;;;;;;11.29;100.00;99348.16;4838512;29;20897;-79
2021/11/01 01:37:45;;;;;;;18.80;16.55;;;;;;;11.36;100.00;99360.69;4841459;29;20045;-78
2021/11/01 01:40:15;;;;;;;20.75;15.75;;;;;;;11.37;100.00;99365.00;4826401;29;20043;-79
2021/11/01 01:42:40;;;;;;;19.02;16.20;;;;;;;11.38;100.00;99350.47;4826336;29;20034;-78
2021/11/01 01:45:08;;;;;;;19.65;15.55;;;;;;;11.36;100.00;99334.56;4810481;29;20072;-78
2021/11/01 01:47:35;;;;;;;19.05;16.00;;;;;;;11.41;100.00;99371.53;4838489;29;20030;-78
2021/11/01 01:50:03;;;;;;;19.75;15.80;;;;;;;11.39;100.00;99360.19;4848273;29;20034;-78
2021/11/01 01:52:30;;;;;;;18.60;15.90;;;;;;;11.40;100.00;99342.97;4851301;29;20073;-78
2021/11/01 01:54:56;;;;;;;20.13;16.83;;;;;;;11.41;100.00;99341.91;4826387;29;20054;-78
2021/11/01 01:57:22;;;;;;;22.02;17.10;;;;;;;11.40;100.00;99337.59;4826545;29;20045;-78
2021/11/01 01:59:48;;;;;;;22.60;16.33;;;;;;;11.38;100.00;99334.31;4832038;29;20030;-78
2021/11/01 02:02:14;;;;;;;23.17;17.58;;;;;;;11.30;100.00;99316.66;4837001;29;20034;-78
2021/11/01 02:04:39;;;;;;;20.60;17.27;;;;;;;11.29;100.00;99315.84;4811004;29;20129;-78
2021/11/01 02:07:15;;;;;;;20.80;17.55;;;;;;;11.23;100.00;99300.66;4823735;29;20561;-78
2021/11/01 02:09:59;;;;;;;22.83;17.17;;;;;;;11.31;100.00;99309.41;4834719;29;20430;-78
2021/11/01 02:12:41;;;;;;;21.08;17.88;;;;;;;11.26;100.00;99299.38;4840115;29;20125;-80
2021/11/01 02:15:18;;;;;;;23.02;17.42;;;;;;;11.25;100.00;99293.13;4825179;29;20038;-78
2021/11/01 02:17:47;;;;;;;20.98;16.73;;;;;;;11.13;100.00;99276.25;4825931;29;20041;-78
2021/11/01 02:20:19;;;;;;;22.10;17.27;;;;;;;11.27;100.00;99288.34;4827457;29;20471;-79
2021/11/01 02:23:02;;;;;;;20.88;17.58;;;;;;;11.27;100.00;99299.13;4826089;29;20109;-79
2021/11/01 02:25:45;;;;;;;18.67;16.48;;;;;;;11.32;100.00;99294.88;4824898;29;20026;-78
2021/11/01 02:28:15;;;;;;;21.88;16.30;;;;;;;11.26;100.00;99285.91;4825569;29;20018;-79
2021/11/01 02:30:43;;;;;;;21.55;16.83;;;;;;;11.31;100.00;99288.69;4841931;29;20101;-78
2021/11/01 02:33:10;;;;;;;20.25;16.10;;;;;;;11.32;100.00;99290.31;4843595;29;20058;-78
2021/11/01 02:35:38;;;;;;;19.75;15.82;;;;;;;11.29;100.00;99275.47;4855238;29;20166;-79
2021/11/01 02:38:05;;;;;;;19.00;15.32;;;;;;;11.38;100.00;99296.59;4854216;29;20476;-78
2021/11/01 02:40:31;;;;;;;19.75;14.80;;;;;;;11.41;100.00;99290.75;4844091;29;20041;-78
2021/11/01 02:42:57;;;;;;;21.23;15.02;;;;;;;11.36;100.00;99290.66;4831180;29;20461;-78
2021/11/01 02:45:24;;;;;;;26.77;15.20;;;;;;;11.47;100.00;99314.03;4840395;29;20469;-78
2021/11/01 02:47:50;;;;;;;24.77;15.45;;;;;;;11.45;100.00;99306.16;4824915;29;20033;-78
2021/11/01 02:50:19;;;;;;;27.33;15.15;;;;;;;11.55;100.00;99304.72;4825163;29;20038;-79
2021/11/01 02:52:46;;;;;;;23.50;15.35;;;;;;;11.55;100.00;99305.53;4825131;29;20468;-78
2021/11/01 02:55:13;;;;;;;24.83;15.10;;;;;;;11.57;100.00;99322.28;4824015;29;20034;-79
2021/11/01 02:57:41;;;;;;;25.60;15.52;;;;;;;11.44;100.00;99301.03;4809182;29;20545;-78
2021/11/01 03:00:08;;;;;;;21.48;15.63;;;;;;;11.52;100.00;99304.16;4809718;29;20493;-78
2021/11/01 03:02:36;;;;;;;26.67;16.70;;;;;;;11.55;100.00;99321.69;4841426;29;20042;-78
2021/11/01 03:05:11;;;;;;;27.23;17.02;;;;;;;11.43;100.00;99296.72;4845035;29;20029;-79
2021/11/01 03:07:38;;;;;;;29.40;17.30;;;;;;;11.48;100.00;99316.47;4842121;29;20114;-78
2021/11/01 03:10:05;;;;;;;27.10;17.15;;;;;;;11.38;100.00;99296.59;4813593;29;20048;-79
2021/11/01 03:12:32;;;;;;;26.65;17.98;;;;;;;11.27;100.00;99274.88;4845275;29;20114;-78
2021/11/01 03:15:01;;;;;;;30.15;18.35;;;;;;;11.44;100.00;99301.03;4842577;29;20038;-79
2021/11/01 03:17:32;;;;;;;28.73;19.05;;;;;;;11.39;100.00;99303.63;4840650;29;20034;-79
2021/11/01 03:20:19;;;;;;;40.33;20.05;;;;;;;11.27;100.00;99306.38;4826659;29;20103;-78
2021/11/01 03:22:52;;;;;;;35.80;19.60;;;;;;;11.27;100.00;99331.44;4827529;29;20057;-79
2021/11/01 03:25:42;;;;;;;46.38;20.75;;;;;;;11.27;100.00;99350.28;4824719;29;20037;-79
2021/11/01 03:28:13;;;;;;;41.38;20.02;;;;;;;11.25;100.00;99347.00;4826725;29;20042;-79
2021/11/01 03:30:41;;;;;;;38.17;19.83;;;;;;;11.18;100.00;99326.66;4823192;29;20395;-78
2021/11/01 03:33:07;;;;;;;36.92;20.02;;;;;;;11.21;100.00;99324.31;4825389;29;20062;-78
2021/11/01 03:35:35;;;;;;;36.83;20.20;;;;;;;11.15;100.00;99290.25;4837827;29;20407;-78
2021/11/01 03:38:01;;;;;;;38.60;19.77;;;;;;;11.06;100.00;99294.41;4825106;29;20053;-79
2021/11/01 03:40:30;;;;;;;35.28;20.10;;;;;;;11.21;100.00;99321.59;4838976;29;20589;-78
2021/11/01 03:42:57;;;;;;;35.25;19.83;;;;;;;11.21;100.00;99335.06;4824659;29;20122;-77
2021/11/01 03:45:24;;;;;;;30.05;18.63;;;;;;;11.10;100.00;99325.16;4823465;29;20046;-78
2021/11/01 03:48:00;;;;;;;33.25;20.42;;;;;;;11.17;100.00;99323.16;4839704;29;20095;-78
2021/11/01 03:52:54;;;;;;;29.13;18.95;;;;;;;11.03;100.00;99328.00;4843261;29;20098;-79
2021/11/01 03:55:21;;;;;;;32.00;18.95;;;;;;;11.17;100.00;99331.22;4842523;29;20048;-78
2021/11/01 03:57:48;;;;;;;26.88;19.25;;;;;;;11.17;100.00;99339.31;4823585;29;20071;-78
2021/11/01 04:00:15;;;;;;;31.17;19.35;;;;;;;11.16;100.00;99329.59;4824126;29;20034;-78
2021/11/01 04:02:44;;;;;;;32.65;19.40;;;;;;;11.17;100.00;99331.22;4823547;29;20026;-79
2021/11/01 04:05:09;;;;;;;27.75;19.88;;;;;;;11.12;100.00;99323.03;4836781;29;20026;-78
2021/11/01 04:07:34;;;;;;;28.08;19.45;;;;;;;11.17;100.00;99325.84;4824331;29;20453;-78
2021/11/01 04:10:02;;;;;;;29.73;19.23;;;;;;;11.16;100.00;99323.38;4822391;29;20041;-79
2021/11/01 04:12:27;;;;;;;28.85;19.40;;;;;;;11.12;100.00;99328.41;4828099;29;20030;-78
2021/11/01 04:15:02;;;;;;;25.73;19.08;;;;;;;11.09;100.00;99339.66;4832643;29;20036;-78
2021/11/01 04:17:43;;;;;;;29.27;20.15;;;;;;;11.02;100.00;99322.84;4839120;29;20042;-79
2021/11/01 04:22:43;;;;;;;35.05;20.00;;;;;;;11.14;100.00;99331.69;4846664;29;20102;-78
2021/11/01 04:25:09;;;;;;;28.42;20.05;;;;;;;11.08;100.00;99315.69;4858155;29;20460;-78
2021/11/01 04:27:36;;;;;;;26.05;18.50;;;;;;;11.07;100.00;99279.88;4845518;29;20048;-78
2021/11/01 04:30:03;;;;;;;29.23;19.73;;;;;;;11.01;100.00;99295.09;4843450;29;20121;-78
2021/11/01 04:32:35;;;;;;;28.02;18.95;;;;;;;11.15;100.00;99341.41;4842918;29;20030;-78
2021/11/01 04:35:44;;;;;;;32.50;19.92;;;;;;;11.14;100.00;99336.28;4844746;29;20110;-78
2021/11/01 04:37:57;;;;;;;34.63;20.15;;;;;;;11.05;100.00;99315.09;4840323;29;20050;-78
2021/11/01 04:43:59;;;;;;;36.88;21.02;;;;;;;10.98;100.00;99300.97;4790464;29;20051;-78
2021/11/01 04:54:30;;;;;;;29.15;20.23;;;;;;;11.03;100.00;99317.22;4835391;29;20037;-78
2021/11/01 04:56:56;;;;;;;39.08;21.63;;;;;;;10.95;100.00;99297.94;4841622;29;20039;-78
2021/11/01 04:59:22;;;;;;;34.15;20.75;;;;;;;10.93;100.00;99297.38;4825672;29;20034;-78
2021/11/01 05:01:51;;;;;;;35.72;20.90;;;;;;;11.00;100.00;99315.00;4826740;29;20041;-78
2021/11/01 05:04:21;;;;;;;31.77;20.83;;;;;;;10.81;100.00;99279.38;4840975;29;20035;-78
2021/11/01 05:06:56;;;;;;;37.15;20.98;;;;;;;10.90;100.00;99295.16;4825787;29;20445;-79
2021/11/01 05:09:35;;;;;;;;;;;;;;;10.95;100.00;99312.19;4840247;29;20031;-79
2021/11/01 05:17:35;;;;;;;31.02;20.77;;;;;;;10.98;100.00;99298.28;4813819;29;20137;-78
2021/11/01 05:20:14;;;;;;;28.98;21.38;;;;;;;10.99;100.00;99320.63;4814776;29;20034;-78
2021/11/01 05:25:18;;;;;;;29.02;20.92;;;;;;;10.97;100.00;99317.38;4844204;29;20589;-80
2021/11/01 05:28:01;;;;;;;29.75;20.70;;;;;;;10.99;100.00;99321.47;4829494;29;20037;-80
2021/11/01 05:30:39;;;;;;;33.70;20.95;;;;;;;11.00;100.00;99325.78;4842363;29;20101;-80
2021/11/01 05:33:54;;;;;;;30.05;20.95;;;;;;;10.75;100.00;99272.25;4829926;29;20041;-79
2021/11/01 05:35:52;;;;;;;35.80;21.52;;;;;;;10.92;100.00;99303.78;4821009;29;20061;-78
2021/11/01 05:38:17;;;;;;;31.52;20.85;;;;;;;10.97;100.00;99309.28;4827216;29;20031;-79
2021/11/01 05:40:43;;;;;;;36.20;20.77;;;;;;;11.01;100.00;99315.81;4835937;29;20057;-79
2021/11/01 05:43:08;;;;;;;30.25;20.83;;;;;;;10.97;100.00;99322.75;4828181;29;20407;-80
2021/11/01 05:45:35;;;;;;;30.48;20.83;;;;;;;10.90;100.00;99319.38;4808687;29;20040;-80
2021/11/01 05:48:02;;;;;;;31.50;21.08;;;;;;;11.01;100.00;99326.59;4845693;29;20053;-78
2021/11/01 05:50:36;;;;;;;31.08;21.48;;;;;;;11.00;100.00;99333.03;4824759;29;20410;-79
2021/11/01 05:53:04;;;;;;;30.02;21.02;;;;;;;11.02;100.00;99336.28;4826186;29;20031;-80
2021/11/01 05:58:16;;;;;;;33.25;21.55;;;;;;;10.98;100.00;99327.06;4826689;29;20407;-79
2021/11/01 06:03:35;;;;;;;29.10;20.25;;;;;;;10.90;100.00;99317.50;4827001;29;20077;-80
2021/11/01 06:13:57;;;;;;;28.33;20.65;;;;;;;11.02;100.00;99344.38;4838256;29;20476;-79
2021/11/01 06:16:24;;;;;;;28.55;20.52;;;;;;;11.03;100.00;99352.22;4840284;29;20544;-79
2021/11/01 06:18:50;;;;;;;33.10;20.33;;;;;;;11.05;100.00;99350.09;4826901;29;20113;-79
2021/11/01 06:21:17;;;;;;;30.60;20.73;;;;;;;11.05;100.00;99349.28;4823520;29;20125;-79
2021/11/01 06:23:49;;;;;;;31.67;20.15;;;;;;;11.09;100.00;99357.69;4811001;29;20042;-80
2021/11/01 06:26:17;;;;;;;31.20;20.75;;;;;;;11.09;100.00;99360.38;4828057;29;20464;-79
2021/11/01 06:28:45;;;;;;;29.25;19.95;;;;;;;11.00;100.00;99349.19;4834167;29;20067;-79
2021/11/01 06:31:21;;;;;;;32.08;21.23;;;;;;;11.10;100.00;99352.09;4824102;29;20026;-79
2021/11/01 06:34:06;;;;;;;31.50;21.40;;;;;;;11.12;100.00;99362.59;4819660;29;20069;-79
2021/11/01 06:58:48;;;;;;;33.78;22.50;;;;;;;11.11;100.00;99372.56;4827504;29;20053;-79
2021/11/01 07:15:10;;;;;;;38.65;21.90;;;;;;;11.21;100.00;99399.69;4839626;29;20049;-80
2021/11/01 07:17:44;;;;;;;40.45;21.35;;;;;;;11.22;100.00;99392.41;4839324;29;20064;-78
2021/11/01 08:23:05;;;;;;;33.83;20.45;;;;;;;11.61;100.00;99430.38;4823536;29;20045;-79
2021/11/01 08:28:59;;;;;;;40.08;20.08;;;;;;;11.61;100.00;99423.09;4794967;29;20027;-79
2021/11/01 09:21:39;;;;;;;34.28;15.27;;;;;;;11.65;100.00;99426.97;4812655;29;20102;-80
2021/11/01 09:26:50;;;;;;;35.60;15.00;;;;;;;11.77;100.00;99453.88;4815977;29;20122;-80
2021/11/01 09:42:48;;;;;;;31.85;14.40;;;;;;;11.77;100.00;99437.72;4847444;29;20111;-81
2021/11/01 09:45:15;;;;;;;30.42;14.65;;;;;;;11.79;100.00;99443.69;4815469;29;20042;-81
2021/11/01 09:47:46;;;;;;;33.63;16.05;;;;;;;11.83;100.00;99452.09;4830186;29;20034;-80
2021/11/01 09:50:18;;;;;;;29.00;15.73;;;;;;;11.83;100.00;99452.91;4829227;29;20411;-80
2021/11/01 09:52:46;;;;;;;34.10;16.08;;;;;;;11.83;100.00;99447.53;4812748;29;20027;-81
2021/11/01 09:55:46;;;;;;;39.55;15.88;;;;;;;11.74;100.00;99436.31;4815315;29;20059;-81
2021/11/01 10:00:49;;;;;;;30.17;15.15;;;;;;;11.66;100.00;99439.38;4814703;29;20465;-81
2021/11/01 10:03:15;;;;;;;32.72;14.82;;;;;;;11.75;100.00;99454.13;4828077;29;20031;-80
2021/11/01 10:05:54;;;;;;;32.75;13.38;;;;;;;11.84;100.00;99475.28;4817322;29;20035;-80
2021/11/01 10:08:19;;;;;;;35.47;13.98;;;;;;;11.74;100.00;99446.28;4843552;29;20394;-80
2021/11/01 10:10:45;;;;;;;31.73;13.70;;;;;;;11.89;100.00;99470.84;4820817;29;20049;-81
2021/11/01 10:13:16;;;;;;;31.35;13.93;;;;;;;11.90;100.00;99471.69;4832056;29;20068;-80
2021/11/01 10:18:42;;;;;;;31.63;13.90;;;;;;;11.71;100.00;99449.44;4832892;29;20118;-80
2021/11/01 10:21:08;;;;;;;34.33;13.55;;;;;;;11.67;100.00;99448.28;4851516;29;20093;-80
2021/11/01 10:23:33;;;;;;;33.88;13.10;;;;;;;11.79;100.00;99461.72;4836118;29;20074;-80
2021/11/01 10:26:18;;;;;;;27.17;12.73;;;;;;;11.77;100.00;99465.47;4824875;29;20094;-81
2021/11/01 10:28:53;;;;;;;38.53;13.38;;;;;;;11.86;100.00;99482.13;4843491;29;20055;-80
2021/11/01 10:31:23;;;;;;;37.55;13.38;;;;;;;11.88;100.00;99487.25;4816358;29;20034;-81
2021/11/01 10:33:50;;;;;;;30.92;12.93;;;;;;;11.82;100.00;99478.25;4828848;29;20031;-80
2021/11/01 10:36:29;;;;;;;34.30;12.88;;;;;;;11.86;100.00;99484.81;4814141;29;20066;-80
2021/11/01 10:39:15;;;;;;;31.48;12.32;;;;;;;11.84;100.00;99469.91;4826591;29;20101;-81
2021/11/01 10:42:20;;;;;;;26.42;12.00;;;;;;;11.88;100.00;99495.34;4816205;29;20038;-81
2021/11/01 10:58:58;;;;;;;34.72;13.90;;;;;;;11.83;100.00;99469.09;4815519;29;19928;-80
2021/11/01 11:12:36;;;;;;;30.87;13.07;;;;;;;11.68;100.00;99461.50;4825400;29;20481;-80
2021/11/01 11:15:14;;;;;;;32.90;14.13;;;;;;;11.73;100.00;99467.00;4829567;29;20110;-79
2021/11/01 11:21:06;;;;;;;27.52;13.40;;;;;;;11.81;100.00;99459.59;4826355;29;20098;-80
2021/11/01 11:32:44;;;;;;;36.10;14.73;;;;;;;11.79;100.00;99461.72;4815964;29;20042;-80
2021/11/01 11:49:05;;;;;;;30.73;13.48;;;;;;;11.89;100.00;99473.56;4818823;29;20042;-80
2021/11/01 11:51:31;;;;;;;27.55;13.25;;;;;;;11.90;100.00;99472.50;4821675;29;20195;-80
2021/11/01 11:53:59;;;;;;;30.55;13.32;;;;;;;11.90;100.00;99474.38;4818142;29;20022;-81
2021/11/01 11:56:33;;;;;;;34.25;12.13;;;;;;;11.89;100.00;99467.34;4826636;29;20050;-81
2021/11/01 11:59:05;;;;;;;28.52;11.75;;;;;;;11.88;100.00;99476.47;4839788;29;20031;-80
2021/11/01 12:01:35;;;;;;;28.65;11.73;;;;;;;11.49;100.00;99416.97;4828423;29;20075;-81
2021/11/01 12:04:04;;;;;;;32.67;10.65;;;;;;;11.77;100.00;99459.25;4823719;29;20074;-80
2021/11/01 12:06:56;;;;;;;32.47;10.68;;;;;;;11.87;100.00;99481.06;4811748;29;20439;-81
2021/11/01 12:09:26;;;;;;;31.65;10.50;;;;;;;11.89;100.00;99478.13;4835283;29;20370;-82
2021/11/01 12:17:12;;;;;;;32.30;9.60;;;;;;;11.85;100.00;99488.53;4829587;29;20484;-80
2021/11/01 12:19:38;;;;;;;28.15;9.82;;;;;;;11.85;100.00;99495.81;4831501;29;20039;-80
2021/11/01 12:22:07;;;;;;;27.33;7.93;;;;;;;11.85;100.00;99479.66;4833483;29;20054;-80
2021/11/01 12:24:33;;;;;;;30.17;8.82;;;;;;;11.79;100.00;99484.09;4838900;29;20437;-80
2021/11/01 12:27:09;;;;;;;26.58;8.15;;;;;;;11.86;100.00;99498.28;4815141;29;20058;-80
2021/11/01 12:29:35;;;;;;;27.50;8.45;;;;;;;11.90;100.00;99495.94;4823154;29;20082;-80
2021/11/01 12:32:08;;;;;;;25.83;8.32;;;;;;;11.83;100.00;99487.16;4817280;29;20023;-81
2021/11/01 12:34:42;;;;;;;24.92;8.32;;;;;;;11.86;100.00;99500.19;4825832;29;20031;-80
2021/11/01 12:37:16;;;;;;;24.58;7.88;;;;;;;11.83;100.00;99496.03;4823866;29;20075;-80
2021/11/01 12:39:45;;;;;;;26.90;7.55;;;;;;;11.85;100.00;99490.44;4839504;29;20027;-80
2021/11/01 12:42:38;;;;;;;29.30;7.93;;;;;;;11.86;100.00;99497.47;4821867;29;20031;-79
2021/11/01 12:58:56;;;;;;;25.42;4.28;;;;;;;11.62;100.00;99486.75;4807376;29;20420;-79
2021/11/01 13:01:24;;;;;;;23.73;4.10;;;;;;;11.70;100.00;99483.66;4808166;29;20061;-80
2021/11/01 13:04:03;;;;;;;19.73;4.18;;;;;;;11.66;100.00;99476.31;4810014;29;20358;-79
2021/11/01 13:06:39;;;;;;;31.63;4.35;;;;;;;11.71;100.00;99482.59;4807767;29;20035;-79
2021/11/01 13:09:13;;;;;;;28.58;4.53;;;;;;;11.53;100.00;99463.91;4803156;29;20369;-78
2021/11/01 13:12:01;;;;;;;24.42;4.32;;;;;;;11.72;100.00;99478.84;4807346;29;20031;-79
2021/11/01 13:14:50;;;;;;;29.42;4.50;;;;;;;11.72;100.00;99494.19;4814902;29;20042;-78
2021/11/01 13:20:07;;;;;;;23.02;3.92;;;;;;;11.69;100.00;99481.22;4805752;29;20070;-78
2021/11/01 13:22:57;;;;;;;28.80;4.72;;;;;;;11.68;100.00;99484.94;4808376;29;20118;-78
2021/11/01 13:38:50;;;;;;;27.20;5.15;;;;;;;11.58;100.00;99500.91;4802739;29;20493;-79
2021/11/01 13:41:26;;;;;;;30.00;4.82;;;;;;;11.55;100.00;99504.88;4818538;29;20048;-78
2021/11/01 13:43:51;;;;;;;37.22;4.75;;;;;;;11.56;100.00;99509.25;4814515;29;20074;-80
2021/11/01 13:46:26;;;;;;;29.52;4.82;;;;;;;11.59;100.00;99505.22;4807538;29;20103;-79
2021/11/01 13:48:56;;;;;;;26.95;5.30;;;;;;;11.54;100.00;99500.56;4829071;29;20083;-79
2021/11/01 13:51:22;;;;;;;26.45;4.72;;;;;;;11.48;100.00;99499.63;4801100;29;20027;-78
2021/11/01 13:54:10;;;;;;;24.48;5.32;;;;;;;11.52;100.00;99508.03;4804009;29;20042;-78
2021/11/01 13:56:44;;;;;;;26.38;5.68;;;;;;;11.51;100.00;99522.59;4817372;29;20454;-79
2021/11/01 15:19:00;;;;;;;26.83;4.95;;;;;;;11.01;100.00;99542.72;4809850;29;20782;-78
2021/11/01 15:24:10;;;;;;;26.77;5.00;;;;;;;10.98;100.00;99558.53;4803007;29;20465;-78
2021/11/01 15:29:20;;;;;;;30.35;4.97;;;;;;;10.37;100.00;99465.56;4803085;29;20048;-78
2021/11/01 16:18:15;;;;;;;20.17;4.10;;;;;;;10.73;100.00;99575.69;4813597;29;20050;-80
2021/11/01 16:20:42;;;;;;;20.17;4.05;;;;;;;10.73;100.00;99583.78;4823541;29;20094;-80
2021/11/01 16:23:24;;;;;;;22.42;4.28;;;;;;;10.69;100.00;99574.50;4826610;29;20054;-80
2021/11/01 16:25:56;;;;;;;25.67;4.63;;;;;;;10.64;100.00;99578.94;4830814;29;20044;-80
2021/11/01 16:28:25;;;;;;;26.45;4.15;;;;;;;10.50;100.00;99571.06;4836439;29;20037;-80
2021/11/01 16:31:11;;;;;;;22.88;4.75;;;;;;;10.47;100.00;99584.16;4852615;29;20027;-80
2021/11/01 16:33:43;;;;;;;24.27;4.25;;;;;;;10.45;100.00;99597.00;4827436;29;20045;-80
2021/11/01 16:36:21;;;;;;;21.60;3.97;;;;;;;10.42;100.00;99595.56;4795907;29;20038;-80
2021/11/01 16:38:53;;;;;;;23.17;3.95;;;;;;;10.41;100.00;99604.69;4819320;29;20034;-79
2021/11/01 16:41:23;;;;;;;22.75;4.20;;;;;;;10.40;100.00;99602.22;4810562;29;20039;-80
2021/11/01 16:43:49;;;;;;;28.73;4.38;;;;;;;10.20;100.00;99567.50;4809011;29;20031;-80
2021/11/01 16:46:15;;;;;;;21.83;4.07;;;;;;;10.41;100.00;99601.19;4808421;29;20043;-80
2021/11/01 16:48:45;;;;;;;23.35;4.32;;;;;;;10.36;100.00;99601.84;4809090;29;20027;-80
2021/11/01 16:51:12;;;;;;;26.42;4.25;;;;;;;10.26;100.00;99585.44;4823557;29;20066;-80
2021/11/01 16:53:49;;;;;;;22.27;4.20;;;;;;;10.45;100.00;99602.38;4810313;29;20035;-81
2021/11/01 16:59:26;;;;;;;23.00;5.22;;;;;;;10.33;100.00;99594.25;4795282;29;20043;-80
2021/11/01 17:01:58;;;;;;;21.85;4.25;;;;;;;10.38;100.00;99602.47;4811938;29;20035;-79
2021/11/01 17:04:26;;;;;;;17.83;3.70;;;;;;;10.39;100.00;99600.59;4813008;29;20052;-82
2021/11/01 17:07:03;;;;;;;27.67;4.30;;;;;;;10.38;100.00;99604.34;4822454;29;20461;-79
2021/11/01 17:09:58;;;;;;;25.75;4.20;;;;;;;10.49;100.00;99627.75;4826401;29;20065;-79
2021/11/01 18:40:55;;;;;;;21.75;4.10;;;;;;;10.37;100.00;99708.41;4828598;29;20057;-79
2021/11/01 18:51:32;;;;;;;28.67;5.38;;;;;;;10.16;100.00;99711.47;4839268;29;20049;-79
2021/11/01 18:54:19;;;;;;;26.40;5.03;;;;;;;10.13;100.00;99701.97;4806451;29;20081;-79
2021/11/01 18:56:46;;;;;;;19.63;4.53;;;;;;;10.09;100.00;99698.91;4826377;29;20022;-80
2021/11/01 18:59:12;;;;;;;20.23;4.38;;;;;;;10.02;100.00;99692.81;4827502;29;20041;-79
2021/11/01 19:01:41;;;;;;;26.40;4.82;;;;;;;10.04;100.00;99693.41;4840840;29;20042;-79
2021/11/01 19:04:16;;;;;;;16.92;4.70;;;;;;;9.91;100.00;99681.97;4845452;29;20120;-79
2021/11/01 21:25:30;;;;;;;13.43;3.60;;;;;;;10.07;100.00;99778.97;4838891;29;20037;-81
2021/11/01 21:27:56;;;;;;;22.45;4.35;;;;;;;9.99;100.00;99765.00;4822369;29;20042;-81
2021/11/01 21:30:22;;;;;;;18.25;3.58;;;;;;;9.93;100.00;99763.19;4834907;29;20121;-80
2021/11/01 21:32:47;;;;;;;15.35;3.60;;;;;;;10.02;100.00;99781.50;4829463;29;20068;-79
2021/11/01 21:35:15;;;;;;;16.50;3.65;;;;;;;9.94;100.00;99773.72;4839653;29;20146;-79
2021/11/01 21:37:42;;;;;;;15.07;3.67;;;;;;;9.93;100.00;99781.97;4820609;29;20035;-80
2021/11/01 21:40:16;;;;;;;15.70;3.33;;;;;;;9.91;100.00;99781.41;4827832;29;20117;-80
2021/11/01 21:42:42;;;;;;;16.80;3.50;;;;;;;9.88;100.00;99783.47;4833880;29;20398;-81
2021/11/01 21:45:09;;;;;;;18.42;4.00;;;;;;;9.86;100.00;99793.59;4842334;29;20030;-79
2021/11/01 21:47:35;;;;;;;17.80;3.33;;;;;;;9.80;100.00;99791.81;4828803;29;20390;-79
2021/11/01 21:50:02;;;;;;;16.80;3.55;;;;;;;9.82;100.00;99794.28;4818176;29;20058;-80
2021/11/01 21:52:29;;;;;;;17.55;3.90;;;;;;;9.76;100.00;99781.72;4842048;29;20497;-80
2021/11/01 21:54:57;;;;;;;20.00;4.15;;;;;;;9.78;100.00;99798.44;4868151;29;20034;-81
2021/11/01 22:19:37;;;;;;;18.88;4.03;;;;;;;9.59;100.00;99801.06;4838237;29;20022;-80
2021/11/01 22:33:07;;;;;;;18.30;4.43;;;;;;;9.49;100.00;99781.91;4807513;29;20078;-80
2021/11/01 22:40:54;;;;;;;19.77;4.85;;;;;;;9.61;100.00;99806.22;4866715;29;20046;-80
2021/11/01 22:58:50;;;;;;;15.20;4.97;;;;;;;9.58;100.00;99801.28;4831746;29;20034;-80
2021/11/01 23:01:24;;;;;;;16.52;5.10;;;;;;;9.61;100.00;99800.84;4818703;29;20138;-80
2021/11/01 23:33:48;;;;;;;15.52;4.68;;;;;;;9.43;100.00;99771.22;4831935;29;20117;-81
2021/11/01 23:36:14;;;;;;;16.88;4.78;;;;;;;9.40;100.00;99770.63;4830969;29;20057;-81
2021/11/01 23:38:39;;;;;;;19.83;5.07;;;;;;;9.50;100.00;99788.09;4845254;29;20050;-81
2021/11/01 23:41:05;;;;;;;19.90;4.88;;;;;;;9.48;100.00;99784.81;4832479;29;20038;-80
2021/11/01 23:43:32;;;;;;;15.27;4.72;;;;;;;9.49;100.00;99786.47;4832472;29;20068;-80
2021/11/01 23:45:58;;;;;;;16.73;4.78;;;;;;;9.46;100.00;99798.44;4831179;29;20469;-81
2021/11/01 23:48:24;;;;;;;18.08;4.75;;;;;;;9.46;100.00;99798.44;4834625;29;20072;-80
2021/11/01 23:50:50;;;;;;;19.17;4.85;;;;;;;9.38;100.00;99783.44;4852703;29;20030;-80
2021/11/01 23:53:34;;;;;;;18.58;4.90;;;;;;;9.28;100.00;99779.59;4850591;29;20038;-81
2021/11/01 23:56:00;;;;;;;16.77;5.23;;;;;;;9.45;100.00;99806.75;4849117;29;20017;-81
2021/11/01 23:58:27;;;;;;;19.95;5.15;;;;;;;9.46;100.00;99792.25;4865628;29;20293;-81
